Portada
METAR-TAF:

METAR-TAF

Aeroports :

Crestview, Florida, Estats Units d'Amèrica

latitud: 30-46-20N, longitud: 086-31-12W, altitud: 65 m

Observació

L'informe es va fer fa 55 minuts, a les 13:53 UTC
Vent calma
Temperatura 19°C
Humitat 100%
Pressió 1021 hPa
boira

METAR: KCEW 271353Z AUTO 00000KT M1/4SM FG VV001 19/19 A3014 RMK AO2 SLP202 T01940189

Hora: 08:48 (14:48 UTC)


TAF: manca

Observacions i pronòstics meteorològics de més de 4000 aeroports (METAR i TAF).

Les estacions disponibles són els punts grocs i vermells al mapa.

Posi el ratolí al punt desitjat per veure el nom de l'estació.

Feu clic per veure les observacions i els pronòstics meteorològics.

Per canviar el mapa: feu clic els botons verds amb una creu de color negre per apropar; al botó verd amb un guió per allunyar la imatge; o en les fletxes verdes per a mapes adjacents.


METAR-TAF: